createdAt,value
2022-09-28T00:00:15.501Z,98707.00
2022-09-28T00:05:15.556Z,98701.00
2022-09-28T00:10:15.835Z,98699.00
2022-09-28T00:15:15.597Z,98697.00
2022-09-28T00:20:16.853Z,98699.00
2022-09-28T00:25:16.759Z,98697.00
2022-09-28T00:30:16.824Z,98699.00
2022-09-28T00:35:16.614Z,98699.00
2022-09-28T00:40:16.568Z,98693.00
2022-09-28T00:45:16.538Z,98685.00
2022-09-28T00:50:16.705Z,98681.00
2022-09-28T00:55:16.939Z,98677.00
2022-09-28T01:00:17.011Z,98673.00
2022-09-28T01:05:16.663Z,98673.00
2022-09-28T01:10:17.116Z,98671.00
2022-09-28T01:15:17.465Z,98667.00
2022-09-28T01:20:17.670Z,98663.00
2022-09-28T01:25:17.726Z,98665.00
2022-09-28T01:30:17.730Z,98669.00
2022-09-28T01:35:17.574Z,98671.00
2022-09-28T01:40:19.751Z,98671.00
2022-09-28T01:45:19.729Z,98669.00
2022-09-28T01:50:19.671Z,98667.00
2022-09-28T01:55:19.983Z,98665.00
2022-09-28T02:00:21.836Z,98663.00
2022-09-28T02:05:21.609Z,98663.00
2022-09-28T02:10:21.684Z,98657.00
2022-09-28T02:15:21.719Z,98657.00
2022-09-28T02:20:21.638Z,98657.00
2022-09-28T02:25:21.676Z,98657.00
2022-09-28T02:30:21.691Z,98659.00
2022-09-28T02:35:21.952Z,98663.00
2022-09-28T02:40:22.617Z,98663.00
2022-09-28T02:45:23.202Z,98665.00
2022-09-28T02:50:23.699Z,98663.00
2022-09-28T02:55:23.720Z,98663.00
2022-09-28T03:00:23.649Z,98667.00
2022-09-28T03:05:23.784Z,98665.00
2022-09-28T03:10:23.724Z,98665.00
2022-09-28T03:15:23.906Z,98663.00
2022-09-28T03:20:23.703Z,98665.00
2022-09-28T03:25:23.797Z,98663.00
2022-09-28T03:30:24.054Z,98663.00
2022-09-28T03:35:23.688Z,98665.00
2022-09-28T03:40:23.896Z,98667.00
2022-09-28T03:45:24.794Z,98667.00
2022-09-28T03:50:24.716Z,98667.00
2022-09-28T03:55:24.742Z,98667.00
2022-09-28T04:00:25.373Z,98669.00
2022-09-28T04:05:25.734Z,98669.00
2022-09-28T04:10:27.319Z,98671.00
2022-09-28T04:15:27.654Z,98673.00
2022-09-28T04:20:35.751Z,98673.00
2022-09-28T04:25:35.729Z,98671.00
2022-09-28T04:30:35.924Z,98673.00
2022-09-28T04:35:36.539Z,98675.00
2022-09-28T04:40:39.898Z,98677.00
2022-09-28T04:45:41.663Z,98675.00
2022-09-28T04:50:52.769Z,98673.00
2022-09-28T04:55:52.819Z,98673.00
2022-09-28T05:00:54.959Z,98675.00
2022-09-28T05:06:02.771Z,98675.00
2022-09-28T05:11:02.772Z,98673.00
2022-09-28T05:16:05.563Z,98675.00
2022-09-28T05:21:05.270Z,98677.00
2022-09-28T05:26:04.921Z,98675.00
2022-09-28T05:31:15.868Z,98677.00
2022-09-28T05:36:16.649Z,98679.00
2022-09-28T05:41:16.703Z,98679.00
2022-09-28T05:46:16.953Z,98679.00
2022-09-28T05:51:17.105Z,98683.00
2022-09-28T05:56:18.489Z,98683.00
2022-09-28T06:01:19.341Z,98687.00
2022-09-28T06:06:21.149Z,98689.00
2022-09-28T06:11:21.216Z,98693.00
2022-09-28T06:16:20.844Z,98701.00
2022-09-28T06:21:21.431Z,98703.00
2022-09-28T06:26:22.633Z,98705.00
2022-09-28T06:31:24.745Z,98707.00
2022-09-28T06:36:24.980Z,98710.00
2022-09-28T06:41:24.821Z,98716.00
2022-09-28T06:46:27.101Z,98722.00
2022-09-28T06:51:31.662Z,98728.00
2022-09-28T06:56:33.089Z,98732.00
2022-09-28T07:01:41.714Z,98742.00
2022-09-28T07:07:00.327Z,98750.00
2022-09-28T07:12:07.792Z,98756.00
2022-09-28T07:17:13.542Z,98762.00
2022-09-28T07:22:16.137Z,98768.00
2022-09-28T07:27:25.492Z,98770.00
2022-09-28T07:32:34.857Z,98772.00
2022-09-28T07:37:34.991Z,98776.00
2022-09-28T07:42:35.759Z,98778.00
2022-09-28T07:47:46.802Z,98785.00
2022-09-28T07:52:51.615Z,98797.00
2022-09-28T07:57:53.652Z,98799.00
2022-09-28T08:02:57.987Z,98805.00
2022-09-28T08:08:00.259Z,98805.00
2022-09-28T08:13:20.395Z,98813.00
2022-09-28T08:18:20.818Z,98813.00
2022-09-28T08:23:21.028Z,98813.00
2022-09-28T08:28:23.360Z,98815.00
2022-09-28T08:33:24.811Z,98823.00
2022-09-28T08:38:38.960Z,98825.00
2022-09-28T08:43:41.052Z,98830.00
2022-09-28T08:49:13.032Z,98832.00
2022-09-28T08:53:55.798Z,98836.00
2022-09-28T08:58:55.819Z,98838.00
2022-09-28T09:04:04.828Z,98842.00
2022-09-28T09:09:05.167Z,98852.00
2022-09-28T09:14:05.157Z,98854.00
2022-09-28T09:19:09.714Z,98856.00
2022-09-28T09:24:09.907Z,98860.00
2022-09-28T09:29:12.519Z,98864.00
2022-09-28T09:34:17.830Z,98864.00
2022-09-28T09:39:36.734Z,98864.00
2022-09-28T09:44:40.252Z,98872.00
2022-09-28T09:49:39.989Z,98874.00
2022-09-28T09:54:41.759Z,98875.00
2022-09-28T09:59:43.753Z,98877.00
2022-09-28T10:04:46.006Z,98879.00
2022-09-28T10:09:56.933Z,98877.00
2022-09-28T10:14:58.828Z,98879.00
2022-09-28T10:20:00.787Z,98875.00
2022-09-28T10:25:01.101Z,98879.00
2022-09-28T10:30:01.354Z,98877.00
2022-09-28T10:35:02.126Z,98877.00
2022-09-28T10:40:03.865Z,98879.00
2022-09-28T10:45:11.463Z,98879.00
2022-09-28T10:50:11.116Z,98885.00
2022-09-28T10:55:10.908Z,98887.00
2022-09-28T11:00:13.287Z,98887.00
2022-09-28T11:05:14.798Z,98887.00
2022-09-28T11:10:15.162Z,98887.00
2022-09-28T11:15:14.994Z,98885.00
2022-09-28T11:20:15.129Z,98883.00
2022-09-28T11:25:15.098Z,98883.00
2022-09-28T11:30:16.998Z,98885.00
2022-09-28T11:35:17.059Z,98887.00
2022-09-28T11:40:17.210Z,98889.00
2022-09-28T11:45:17.020Z,98887.00
2022-09-28T11:50:23.557Z,98885.00
2022-09-28T11:55:20.143Z,98885.00
2022-09-28T12:00:21.944Z,98881.00
2022-09-28T12:05:23.894Z,98883.00
2022-09-28T12:10:24.075Z,98881.00
2022-09-28T12:15:24.026Z,98883.00
2022-09-28T12:20:24.495Z,98883.00
2022-09-28T12:25:24.016Z,98877.00
2022-09-28T12:30:24.795Z,98879.00
2022-09-28T12:35:25.072Z,98885.00
2022-09-28T12:40:25.941Z,98883.00
2022-09-28T12:45:27.227Z,98881.00
2022-09-28T12:50:38.512Z,98875.00
2022-09-28T12:55:29.074Z,98874.00
2022-09-28T13:00:29.059Z,98875.00
2022-09-28T13:05:29.092Z,98874.00
2022-09-28T13:10:31.353Z,98875.00
2022-09-28T13:15:31.648Z,98872.00
2022-09-28T13:20:32.058Z,98875.00
2022-09-28T13:25:32.156Z,98874.00
2022-09-28T13:30:32.074Z,98870.00
2022-09-28T13:35:32.866Z,98868.00
2022-09-28T13:40:33.890Z,98868.00
2022-09-28T13:45:34.072Z,98862.00
2022-09-28T13:50:34.271Z,98858.00
2022-09-28T13:55:34.059Z,98856.00
2022-09-28T14:00:34.280Z,98858.00
2022-09-28T14:05:34.587Z,98862.00
2022-09-28T14:10:34.148Z,98862.00
2022-09-28T14:15:34.141Z,98864.00
2022-09-28T14:20:34.434Z,98862.00
2022-09-28T14:25:35.513Z,98864.00
2022-09-28T14:30:35.141Z,98862.00
2022-09-28T14:35:35.140Z,98862.00
2022-09-28T14:40:53.524Z,98862.00
2022-09-28T14:45:54.133Z,98868.00
2022-09-28T14:50:56.085Z,98872.00
2022-09-28T14:55:56.257Z,98872.00
2022-09-28T15:00:56.222Z,98877.00
2022-09-28T15:05:56.146Z,98879.00
2022-09-28T15:10:56.183Z,98879.00
2022-09-28T15:15:56.256Z,98881.00
2022-09-28T15:20:56.152Z,98885.00
2022-09-28T15:25:56.203Z,98887.00
2022-09-28T15:30:56.162Z,98889.00
2022-09-28T15:35:56.113Z,98893.00
2022-09-28T15:40:56.992Z,98893.00
2022-09-28T15:45:59.475Z,98895.00
2022-09-28T15:50:59.119Z,98899.00
2022-09-28T15:55:59.233Z,98905.00
2022-09-28T16:00:59.197Z,98911.00
2022-09-28T16:05:59.246Z,98917.00
2022-09-28T16:10:59.111Z,98946.00
2022-09-28T16:15:59.287Z,98966.00
2022-09-28T16:20:59.115Z,98977.00
2022-09-28T16:25:59.205Z,98977.00
2022-09-28T16:30:59.562Z,98977.00
2022-09-28T16:35:59.739Z,98977.00
2022-09-28T16:41:01.098Z,98979.00
2022-09-28T16:46:01.259Z,98981.00
2022-09-28T16:51:01.190Z,98985.00
2022-09-28T16:56:01.232Z,98989.00
2022-09-28T17:01:01.243Z,98999.00
2022-09-28T17:06:01.207Z,99003.00
2022-09-28T17:11:14.917Z,99005.00
2022-09-28T17:16:03.799Z,99007.00
2022-09-28T17:21:04.283Z,99011.00
2022-09-28T17:26:04.305Z,99011.00
2022-09-28T17:31:04.362Z,99009.00
2022-09-28T17:36:04.997Z,99009.00
2022-09-28T17:41:05.336Z,99011.00
2022-09-28T17:46:07.220Z,99013.00
2022-09-28T17:51:07.947Z,99011.00
2022-09-28T17:56:09.275Z,99007.00
2022-09-28T18:01:09.259Z,99005.00
2022-09-28T18:06:10.016Z,99009.00
2022-09-28T18:11:10.299Z,99019.00
2022-09-28T18:16:10.388Z,99025.00
2022-09-28T18:21:10.249Z,99035.00
2022-09-28T18:26:10.403Z,99041.00
2022-09-28T18:31:10.386Z,99039.00
2022-09-28T18:36:10.250Z,99037.00
2022-09-28T18:41:10.589Z,99033.00
2022-09-28T18:46:10.373Z,99035.00
2022-09-28T18:51:10.275Z,99037.00
2022-09-28T18:56:10.312Z,99041.00
2022-09-28T19:01:28.986Z,99048.00
2022-09-28T19:06:12.633Z,99052.00
2022-09-28T19:11:12.242Z,99054.00
2022-09-28T19:16:12.310Z,99060.00
2022-09-28T19:21:12.388Z,99064.00
2022-09-28T19:26:12.370Z,99064.00
2022-09-28T19:31:12.378Z,99066.00
2022-09-28T19:36:12.343Z,99068.00
2022-09-28T19:41:12.323Z,99068.00
2022-09-28T19:46:12.731Z,99072.00
2022-09-28T19:51:12.662Z,99072.00
2022-09-28T19:56:12.277Z,99076.00
2022-09-28T20:01:12.331Z,99084.00
2022-09-28T20:06:17.123Z,99088.00
2022-09-28T20:11:14.330Z,99094.00
2022-09-28T20:16:14.443Z,99096.00
2022-09-28T20:21:18.012Z,99098.00
2022-09-28T20:26:16.327Z,99098.00
2022-09-28T20:31:16.474Z,99100.00
2022-09-28T20:36:16.358Z,99100.00
2022-09-28T20:41:17.438Z,99101.00
2022-09-28T20:46:18.968Z,99100.00
2022-09-28T20:51:19.405Z,99098.00
2022-09-28T20:56:19.522Z,99100.00
2022-09-28T21:01:19.527Z,99101.00
2022-09-28T21:06:19.424Z,99103.00
2022-09-28T21:11:19.323Z,99105.00
2022-09-28T21:16:19.324Z,99103.00
2022-09-28T21:21:19.317Z,99105.00
2022-09-28T21:26:21.196Z,99107.00
2022-09-28T21:31:26.207Z,99109.00
2022-09-28T21:36:23.421Z,99111.00
2022-09-28T21:41:23.432Z,99113.00
2022-09-28T21:46:24.253Z,99117.00
2022-09-28T21:51:24.539Z,99119.00
2022-09-28T21:56:24.380Z,99117.00
2022-09-28T22:01:25.227Z,99117.00
2022-09-28T22:06:27.404Z,99117.00
2022-09-28T22:11:27.449Z,99119.00
2022-09-28T22:16:27.470Z,99119.00
2022-09-28T22:21:27.446Z,99117.00
2022-09-28T22:26:27.448Z,99121.00
2022-09-28T22:31:27.480Z,99125.00
2022-09-28T22:36:27.441Z,99123.00
2022-09-28T22:41:27.995Z,99123.00
2022-09-28T22:46:28.633Z,99123.00
2022-09-28T22:51:28.395Z,99123.00
2022-09-28T22:56:28.480Z,99123.00
2022-09-28T23:01:28.633Z,99125.00
2022-09-28T23:06:30.335Z,99127.00
2022-09-28T23:11:30.434Z,99125.00
2022-09-28T23:16:30.663Z,99127.00
2022-09-28T23:21:30.820Z,99125.00
2022-09-28T23:26:30.556Z,99127.00
2022-09-28T23:31:30.506Z,99127.00
2022-09-28T23:36:30.466Z,99125.00
2022-09-28T23:41:30.448Z,99127.00
2022-09-28T23:46:30.513Z,99131.00
2022-09-28T23:51:31.113Z,99131.00
2022-09-28T23:56:34.537Z,99133.00
